createdAt,value
2022-08-28T00:07:12.154Z,17.7
2022-08-28T00:12:12.238Z,17.6
2022-08-28T00:22:12.159Z,17.7
2022-08-28T00:32:12.170Z,17.5
2022-08-28T00:37:13.481Z,17.3
2022-08-28T00:42:12.165Z,17.4
2022-08-28T00:47:12.172Z,17.5
2022-08-28T00:52:12.635Z,17.4
2022-08-28T00:57:12.179Z,17.6
2022-08-28T01:02:12.176Z,17.1
2022-08-28T01:07:12.179Z,17.3
2022-08-28T01:12:12.197Z,17.0
2022-08-28T01:17:12.182Z,17.1
2022-08-28T01:27:12.205Z,16.9
2022-08-28T01:42:12.191Z,17.0
2022-08-28T01:52:12.196Z,16.9
2022-08-28T01:57:12.201Z,16.8
2022-08-28T02:02:12.194Z,16.6
2022-08-28T02:07:12.200Z,16.5
2022-08-28T02:12:12.213Z,16.3
2022-08-28T02:17:12.199Z,16.6
2022-08-28T02:27:12.215Z,16.5
2022-08-28T02:32:12.216Z,16.4
2022-08-28T02:37:12.211Z,16.5
2022-08-28T02:42:12.233Z,16.2
2022-08-28T02:52:12.229Z,16.1
2022-08-28T03:02:12.256Z,15.9
2022-08-28T03:07:12.213Z,16.0
2022-08-28T03:12:12.233Z,15.9
2022-08-28T03:17:12.241Z,16.0
2022-08-28T03:22:12.236Z,15.8
2022-08-28T03:27:12.238Z,15.7
2022-08-28T03:32:12.233Z,15.6
2022-08-28T03:42:12.232Z,15.5
2022-08-28T03:47:12.238Z,15.4
2022-08-28T04:02:12.239Z,15.3
2022-08-28T04:07:12.257Z,15.2
2022-08-28T04:12:12.267Z,15.1
2022-08-28T04:17:12.327Z,15.0
2022-08-28T04:32:12.313Z,15.2
2022-08-28T04:37:12.255Z,15.3
2022-08-28T04:42:12.260Z,15.2
2022-08-28T04:47:12.265Z,15.1
2022-08-28T04:52:12.265Z,14.9
2022-08-28T04:57:12.293Z,15.0
2022-08-28T05:02:12.358Z,15.2
2022-08-28T05:07:12.264Z,15.3
2022-08-28T05:12:12.290Z,15.4
2022-08-28T05:17:12.297Z,15.5
2022-08-28T05:22:12.307Z,15.6
2022-08-28T05:27:12.283Z,15.7
2022-08-28T05:37:14.534Z,15.9
2022-08-28T05:47:12.289Z,16.0
2022-08-28T05:52:12.312Z,16.1
2022-08-28T05:57:12.290Z,16.3
2022-08-28T06:02:12.597Z,16.4
2022-08-28T06:12:12.308Z,16.6
2022-08-28T06:22:12.307Z,16.7
2022-08-28T06:27:12.316Z,16.9
2022-08-28T06:32:12.397Z,17.0
2022-08-28T06:37:12.322Z,17.1
2022-08-28T06:42:12.314Z,17.2
2022-08-28T06:47:12.318Z,17.3
2022-08-28T06:52:12.308Z,17.5
2022-08-28T06:57:12.304Z,17.6
2022-08-28T07:02:12.437Z,17.8
2022-08-28T07:07:18.723Z,18.0
2022-08-28T07:12:12.314Z,18.1
2022-08-28T07:17:12.315Z,18.4
2022-08-28T07:27:15.757Z,18.5
2022-08-28T07:32:12.327Z,18.7
2022-08-28T07:42:12.340Z,18.8
2022-08-28T07:47:12.338Z,19.1
2022-08-28T07:52:12.338Z,19.3
2022-08-28T07:57:12.339Z,19.6
2022-08-28T08:02:12.333Z,19.8
2022-08-28T08:12:12.341Z,19.9
2022-08-28T08:17:12.344Z,20.6
2022-08-28T08:22:12.351Z,20.9
2022-08-28T08:27:12.337Z,20.5
2022-08-28T08:32:12.344Z,21.0
2022-08-28T08:37:12.352Z,21.3
2022-08-28T08:42:12.360Z,21.5
2022-08-28T08:47:14.937Z,21.8
2022-08-28T08:52:12.360Z,21.6
2022-08-28T08:57:12.350Z,22.1
2022-08-28T09:02:12.357Z,22.2
2022-08-28T09:07:12.387Z,21.2
2022-08-28T09:12:12.371Z,22.0
2022-08-28T09:17:12.365Z,22.6
2022-08-28T09:22:12.356Z,23.1
2022-08-28T09:27:14.319Z,23.0
2022-08-28T09:32:12.369Z,22.7
2022-08-28T09:37:14.047Z,22.9
2022-08-28T09:42:12.375Z,23.5
2022-08-28T09:52:12.383Z,23.6
2022-08-28T09:57:12.384Z,23.0
2022-08-28T10:02:12.462Z,23.7
2022-08-28T10:07:12.398Z,25.3
2022-08-28T10:12:12.400Z,26.1
2022-08-28T10:17:12.391Z,22.8
2022-08-28T10:22:12.384Z,23.4
2022-08-28T10:27:12.398Z,25.3
2022-08-28T10:32:12.396Z,26.0
2022-08-28T10:37:12.388Z,26.6
2022-08-28T10:42:12.399Z,26.9
2022-08-28T10:47:13.558Z,27.8
2022-08-28T10:52:12.401Z,27.1
2022-08-28T10:57:12.407Z,25.1
2022-08-28T11:02:12.502Z,23.5
2022-08-28T11:12:12.448Z,26.8
2022-08-28T11:17:14.249Z,24.3
2022-08-28T11:22:12.433Z,25.1
2022-08-28T11:27:12.420Z,26.4
2022-08-28T11:32:12.427Z,24.4
2022-08-28T11:37:12.411Z,23.5
2022-08-28T11:42:12.424Z,25.4
2022-08-28T11:47:12.426Z,25.7
2022-08-28T11:52:12.419Z,24.6
2022-08-28T11:57:12.419Z,24.7
2022-08-28T12:02:12.473Z,24.5
2022-08-28T12:07:12.436Z,24.1
2022-08-28T12:17:12.435Z,24.2
2022-08-28T12:22:12.430Z,25.4
2022-08-28T12:27:12.446Z,25.2
2022-08-28T12:32:12.453Z,26.4
2022-08-28T12:37:12.438Z,26.7
2022-08-28T12:47:12.460Z,28.1
2022-08-28T12:52:12.461Z,25.7
2022-08-28T12:57:12.448Z,24.4
2022-08-28T13:02:12.623Z,25.1
2022-08-28T13:07:12.458Z,24.5
2022-08-28T13:12:12.449Z,25.7
2022-08-28T13:17:12.463Z,27.0
2022-08-28T13:22:12.469Z,27.7
2022-08-28T13:27:14.978Z,26.6
2022-08-28T13:32:12.484Z,24.8
2022-08-28T13:42:12.469Z,24.5
2022-08-28T13:47:12.480Z,25.1
2022-08-28T13:52:12.473Z,25.5
2022-08-28T13:57:12.479Z,26.7
2022-08-28T14:02:12.520Z,27.0
2022-08-28T14:07:12.476Z,25.2
2022-08-28T14:12:12.494Z,24.7
2022-08-28T14:17:12.691Z,25.8
2022-08-28T14:22:12.507Z,25.0
2022-08-28T14:27:12.487Z,27.0
2022-08-28T14:32:12.537Z,25.6
2022-08-28T14:37:12.503Z,25.7
2022-08-28T14:42:13.260Z,26.9
2022-08-28T14:47:12.499Z,27.9
2022-08-28T14:52:12.497Z,25.4
2022-08-28T14:57:12.511Z,27.0
2022-08-28T15:02:12.500Z,27.9
2022-08-28T15:07:12.510Z,26.9
2022-08-28T15:12:12.531Z,26.8
2022-08-28T15:17:12.535Z,26.3
2022-08-28T15:22:12.645Z,25.5
2022-08-28T15:27:12.553Z,24.5
2022-08-28T15:32:12.540Z,24.6
2022-08-28T15:37:13.477Z,27.0
2022-08-28T15:42:12.527Z,26.5
2022-08-28T15:47:12.575Z,25.9
2022-08-28T15:52:12.552Z,26.2
2022-08-28T15:57:12.533Z,26.4
2022-08-28T16:02:12.685Z,26.1
2022-08-28T16:07:12.604Z,26.3
2022-08-28T16:12:12.530Z,25.8
2022-08-28T16:17:12.553Z,25.7
2022-08-28T16:22:12.537Z,25.1
2022-08-28T16:27:15.486Z,24.4
2022-08-28T16:32:14.024Z,24.1
2022-08-28T16:37:12.551Z,24.0
2022-08-28T16:42:12.545Z,23.8
2022-08-28T16:47:12.620Z,23.6
2022-08-28T16:52:12.550Z,23.4
2022-08-28T17:07:12.561Z,23.5
2022-08-28T17:12:12.564Z,23.3
2022-08-28T17:17:12.560Z,23.4
2022-08-28T17:22:12.556Z,23.3
2022-08-28T17:27:12.569Z,23.0
2022-08-28T17:37:12.583Z,22.7
2022-08-28T17:42:12.573Z,22.5
2022-08-28T17:47:12.583Z,22.4
2022-08-28T17:52:12.580Z,22.3
2022-08-28T17:57:12.586Z,22.1
2022-08-28T18:02:12.648Z,22.0
2022-08-28T18:07:12.599Z,21.8
2022-08-28T18:17:12.599Z,21.7
2022-08-28T18:22:12.587Z,21.5
2022-08-28T18:32:12.595Z,21.7
2022-08-28T18:37:12.600Z,21.4
2022-08-28T18:42:12.603Z,21.2
2022-08-28T18:47:12.605Z,21.3
2022-08-28T18:52:12.610Z,21.0
2022-08-28T19:07:12.610Z,20.9
2022-08-28T19:12:12.607Z,21.0
2022-08-28T19:17:12.612Z,20.8
2022-08-28T19:22:12.630Z,20.5
2022-08-28T19:32:12.622Z,20.4
2022-08-28T19:37:12.619Z,20.2
2022-08-28T19:42:12.635Z,20.3
2022-08-28T19:47:12.637Z,20.1
2022-08-28T19:52:12.632Z,20.0
2022-08-28T19:57:12.659Z,19.9
2022-08-28T20:02:12.672Z,19.7
2022-08-28T20:07:12.635Z,19.6
2022-08-28T20:22:12.642Z,19.7
2022-08-28T20:27:12.634Z,19.8
2022-08-28T20:32:12.648Z,19.6
2022-08-28T20:37:12.893Z,19.4
2022-08-28T20:42:12.654Z,19.5
2022-08-28T20:47:12.642Z,19.4
2022-08-28T20:52:12.644Z,19.2
2022-08-28T20:57:12.657Z,19.1
2022-08-28T21:02:12.657Z,19.2
2022-08-28T21:07:12.675Z,18.9
2022-08-28T21:12:12.673Z,19.1
2022-08-28T21:27:12.676Z,18.9
2022-08-28T21:32:12.675Z,18.8
2022-08-28T21:37:12.675Z,18.9
2022-08-28T21:42:12.667Z,18.8
2022-08-28T21:47:12.691Z,18.7
2022-08-28T21:57:12.677Z,18.9
2022-08-28T22:02:12.743Z,18.8
2022-08-28T22:07:12.682Z,18.9
2022-08-28T22:12:12.684Z,18.3
2022-08-28T22:17:12.764Z,18.2
2022-08-28T22:22:12.696Z,18.3
2022-08-28T22:27:12.701Z,18.2
2022-08-28T22:32:12.731Z,17.8
2022-08-28T22:37:12.695Z,17.9
2022-08-28T22:42:13.149Z,18.0
2022-08-28T22:47:12.698Z,17.8
2022-08-28T22:52:12.716Z,18.0
2022-08-28T22:57:12.695Z,17.9
2022-08-28T23:02:12.719Z,17.7
2022-08-28T23:07:12.727Z,17.5
2022-08-28T23:17:12.704Z,17.4
2022-08-28T23:22:12.729Z,17.3
2022-08-28T23:27:34.722Z,17.1
2022-08-28T23:32:12.767Z,17.2
2022-08-28T23:42:12.732Z,17.0
2022-08-28T23:47:12.728Z,16.9
2022-08-28T23:52:13.784Z,17.0
2022-08-28T23:57:12.731Z,16.9
